Time;durP1;ratioP1;P1;durP2;ratioP2;P2;SDS_P1;SDS_P2;PMS_P1;PMS_P2;Temp;Humidity;BMP_temperature;BMP_pressure;BME280_temperature;BME280_humidity;BME280_pressure;Samples;Min_cycle;Max_cycle;Signal;HPM_P1;HPM_P2
2021/10/18 00:01:43;;;;;;;27.13;16.35;;;;;;;13.30;86.24;100508.41;5023454;28;20033;-73
2021/10/18 00:04:09;;;;;;;27.65;17.17;;;;;;;13.43;85.67;100510.63;5023079;28;20030;-73
2021/10/18 00:06:35;;;;;;;26.83;17.08;;;;;;;13.51;84.70;100509.81;5023523;28;20045;-73
2021/10/18 00:09:01;;;;;;;26.15;17.90;;;;;;;13.70;83.01;100509.56;5023153;28;20044;-73
2021/10/18 00:11:26;;;;;;;28.67;17.00;;;;;;;13.83;82.62;100512.56;5023280;28;20069;-73
2021/10/18 00:13:52;;;;;;;30.95;16.70;;;;;;;13.65;83.38;100504.72;5023075;28;20029;-73
2021/10/18 00:16:18;;;;;;;28.42;17.48;;;;;;;13.58;84.36;100503.72;5022541;28;20049;-73
2021/10/18 00:18:44;;;;;;;27.50;16.55;;;;;;;13.60;83.08;100514.19;5023173;28;20029;-72
2021/10/18 00:21:10;;;;;;;26.40;17.08;;;;;;;13.62;83.21;100499.72;5022885;28;20034;-72
2021/10/18 00:23:35;;;;;;;29.05;17.98;;;;;;;13.80;82.12;100507.56;5022651;28;20045;-73
2021/10/18 00:26:01;;;;;;;30.80;16.42;;;;;;;13.78;82.04;100501.59;5023046;28;20042;-73
2021/10/18 00:28:26;;;;;;;27.85;17.95;;;;;;;13.70;83.00;100506.91;5022717;28;20045;-73
2021/10/18 00:30:52;;;;;;;31.83;18.38;;;;;;;13.38;84.74;100503.13;5022006;28;20064;-73
2021/10/18 00:33:18;;;;;;;32.38;18.35;;;;;;;13.19;86.50;100495.41;5022807;28;20029;-73
2021/10/18 00:35:43;;;;;;;34.42;18.90;;;;;;;13.04;87.32;100497.81;5022995;28;20040;-73
2021/10/18 00:38:09;;;;;;;36.15;18.65;;;;;;;12.88;87.98;100492.44;5022671;28;20342;-73
2021/10/18 00:40:34;;;;;;;30.95;19.25;;;;;;;12.74;89.48;100480.56;5022878;28;20045;-73
2021/10/18 00:43:00;;;;;;;37.47;19.42;;;;;;;12.60;90.52;100496.25;5022575;28;20315;-73
2021/10/18 00:45:27;;;;;;;36.67;19.70;;;;;;;12.63;90.29;100495.94;5022925;28;20379;-73
2021/10/18 00:47:52;;;;;;;31.02;19.08;;;;;;;12.73;90.15;100501.97;5022624;28;20034;-73
2021/10/18 00:50:18;;;;;;;32.78;18.35;;;;;;;12.66;90.95;100498.28;5022384;28;20230;-72
2021/10/18 00:52:43;;;;;;;32.88;19.42;;;;;;;12.72;90.02;100497.66;5022486;28;20025;-72
2021/10/18 00:55:10;;;;;;;31.65;18.92;;;;;;;12.76;89.80;100493.69;5020967;28;20350;-73
2021/10/18 00:57:37;;;;;;;49.10;24.45;;;;;;;13.01;88.20;100503.44;5022552;28;20029;-73
2021/10/18 01:00:04;;;;;;;30.60;17.92;;;;;;;13.14;87.33;100502.19;5022561;28;20030;-73
2021/10/18 01:02:29;;;;;;;32.13;18.30;;;;;;;13.35;84.81;100506.09;5022495;28;20323;-73
2021/10/18 01:04:56;;;;;;;31.00;18.38;;;;;;;13.37;83.58;100501.47;5022280;28;20029;-73
2021/10/18 01:07:22;;;;;;;33.95;18.05;;;;;;;13.28;84.20;100497.09;5022478;28;20099;-73
2021/10/18 01:09:48;;;;;;;29.77;18.23;;;;;;;13.26;84.59;100506.25;5022233;28;20181;-73
2021/10/18 01:12:13;;;;;;;31.02;18.70;;;;;;;13.16;84.24;100498.38;5022393;28;20040;-73
2021/10/18 01:14:39;;;;;;;29.67;18.30;;;;;;;13.29;83.78;100505.91;5022453;28;20081;-73
2021/10/18 01:17:04;;;;;;;30.38;18.92;;;;;;;13.22;84.70;100505.72;5022446;28;20112;-73
2021/10/18 01:19:30;;;;;;;30.80;18.65;;;;;;;13.28;83.91;100504.25;5022199;28;20029;-72
2021/10/18 01:22:01;;;;;;;32.45;18.98;;;;;;;13.34;84.13;100506.28;5022072;28;20315;-72
2021/10/18 01:24:28;;;;;;;27.60;17.83;;;;;;;13.39;83.70;100506.63;5022273;28;20041;-71
2021/10/18 01:26:53;;;;;;;30.67;18.30;;;;;;;13.55;82.82;100503.19;5023947;28;20049;-73
2021/10/18 01:29:19;;;;;;;27.42;17.13;;;;;;;13.56;83.16;100505.69;5026193;28;20018;-73
2021/10/18 01:31:44;;;;;;;32.13;19.67;;;;;;;13.54;82.81;100497.03;5026289;28;20033;-73
2021/10/18 01:34:10;;;;;;;29.77;17.98;;;;;;;13.57;82.46;100494.06;5025863;28;20208;-73
2021/10/18 01:36:35;;;;;;;26.00;17.73;;;;;;;13.68;82.63;100508.88;5026174;28;20033;-73
2021/10/18 01:39:01;;;;;;;29.67;17.20;;;;;;;13.69;82.78;100500.75;5026019;28;20042;-73
2021/10/18 01:41:26;;;;;;;25.73;17.35;;;;;;;13.73;82.21;100511.88;5026027;28;20446;-72
2021/10/18 01:43:52;;;;;;;28.98;17.63;;;;;;;13.81;81.61;100509.25;5025802;28;20061;-73
2021/10/18 01:46:17;;;;;;;29.80;18.52;;;;;;;13.63;82.91;100501.38;5025990;28;20033;-73
2021/10/18 01:48:43;;;;;;;30.88;18.65;;;;;;;13.61;84.07;100500.72;5025861;28;20288;-73
2021/10/18 01:51:09;;;;;;;30.88;18.98;;;;;;;13.60;84.14;100504.38;5025697;28;20034;-72
2021/10/18 01:53:35;;;;;;;31.10;18.90;;;;;;;13.52;85.57;100498.16;5025086;28;20046;-72
2021/10/18 01:56:00;;;;;;;30.42;18.20;;;;;;;13.59;86.07;100501.88;5025745;28;20372;-73
2021/10/18 01:58:26;;;;;;;34.80;18.00;;;;;;;13.58;86.08;100495.72;5024590;28;20026;-73
2021/10/18 02:00:51;;;;;;;27.75;17.40;;;;;;;13.64;86.05;100502.22;5025700;28;20072;-73
2021/10/18 02:03:16;;;;;;;32.67;18.98;;;;;;;13.60;85.48;100493.72;5025464;28;20053;-73
2021/10/18 02:05:42;;;;;;;31.33;17.75;;;;;;;13.56;86.00;100497.72;5025715;28;20247;-73
2021/10/18 02:08:07;;;;;;;27.58;17.50;;;;;;;13.62;85.85;100498.91;5024294;28;20030;-73
2021/10/18 02:10:33;;;;;;;29.90;17.65;;;;;;;13.71;85.05;100497.91;5025459;28;20099;-73
2021/10/18 02:12:59;;;;;;;30.02;17.52;;;;;;;13.69;85.04;100499.91;5025852;28;20124;-73
2021/10/18 02:15:24;;;;;;;29.77;16.75;;;;;;;13.54;85.31;100499.72;5025379;28;20034;-73
2021/10/18 02:17:49;;;;;;;30.13;17.00;;;;;;;13.39;86.47;100499.47;5025401;28;20052;-73
2021/10/18 02:20:15;;;;;;;26.38;16.92;;;;;;;13.21;87.85;100496.09;5025256;28;20124;-72
2021/10/18 02:22:41;;;;;;;28.90;16.95;;;;;;;13.14;89.04;100499.50;5023842;28;20025;-72
2021/10/18 02:25:08;;;;;;;26.20;16.83;;;;;;;13.17;89.04;100502.72;5024882;28;20100;-72
2021/10/18 02:27:35;;;;;;;41.70;20.10;;;;;;;13.18;89.40;100501.72;5025254;28;20113;-73
2021/10/18 02:30:03;;;;;;;48.17;20.67;;;;;;;13.23;88.89;100493.25;5025194;28;20037;-71
2021/10/18 02:32:28;;;;;;;32.58;18.17;;;;;;;13.36;88.34;100504.28;5025094;28;20088;-73
2021/10/18 02:34:54;;;;;;;31.20;18.20;;;;;;;13.40;88.06;100501.13;5024875;28;20348;-73
2021/10/18 02:37:19;;;;;;;31.42;18.90;;;;;;;13.52;86.97;100507.00;5025009;28;20085;-73
2021/10/18 02:39:44;;;;;;;30.13;17.83;;;;;;;13.35;87.14;100479.50;5023938;28;20319;-73
2021/10/18 02:42:10;;;;;;;42.05;22.42;;;;;;;13.48;87.16;100503.00;5024991;28;20040;-73
2021/10/18 02:44:35;;;;;;;36.33;21.15;;;;;;;13.55;86.53;100501.38;5024759;28;20092;-73
2021/10/18 02:47:01;;;;;;;31.15;19.40;;;;;;;13.61;86.10;100507.88;5025020;28;20033;-73
2021/10/18 02:49:26;;;;;;;29.98;19.15;;;;;;;13.71;85.02;100503.22;5024640;28;20025;-72
2021/10/18 02:51:52;;;;;;;33.35;18.13;;;;;;;13.68;84.43;100506.22;5024738;28;20033;-72
2021/10/18 02:54:17;;;;;;;41.45;18.15;;;;;;;13.68;83.92;100514.22;5024290;28;20092;-72
2021/10/18 02:56:43;;;;;;;28.88;18.02;;;;;;;13.50;85.76;100508.97;5024647;28;20030;-73
2021/10/18 02:59:08;;;;;;;27.55;17.42;;;;;;;13.48;86.35;100508.31;5024602;28;20037;-73
2021/10/18 03:01:34;;;;;;;32.50;17.70;;;;;;;13.54;85.80;100513.00;5024668;28;20041;-73
2021/10/18 03:03:59;;;;;;;27.23;17.45;;;;;;;13.62;84.97;100517.53;5024153;28;20042;-74
2021/10/18 03:06:25;;;;;;;29.88;18.13;;;;;;;13.62;85.31;100513.03;5024530;28;20038;-73
2021/10/18 03:08:50;;;;;;;26.20;16.77;;;;;;;13.68;84.75;100519.53;5024462;28;20365;-73
2021/10/18 03:11:16;;;;;;;31.17;18.73;;;;;;;13.71;84.46;100517.38;5024427;28;20049;-73
2021/10/18 03:13:42;;;;;;;32.70;18.67;;;;;;;13.55;84.51;100500.53;5024241;28;20109;-73
2021/10/18 03:16:07;;;;;;;34.28;17.42;;;;;;;13.42;85.25;100493.81;5024376;28;20042;-73
2021/10/18 03:18:33;;;;;;;26.83;17.40;;;;;;;13.42;86.69;100506.28;5024218;28;20026;-73
2021/10/18 03:20:58;;;;;;;31.67;18.23;;;;;;;13.30;87.17;100510.25;5022986;28;20108;-72
2021/10/18 03:23:24;;;;;;;27.40;17.35;;;;;;;13.19;87.96;100511.38;5023534;28;20037;-72
2021/10/18 03:25:49;;;;;;;34.60;19.73;;;;;;;13.20;88.01;100505.06;5024107;28;20097;-73
2021/10/18 03:28:15;;;;;;;34.67;18.38;;;;;;;13.14;88.10;100508.31;5023746;28;20090;-73
2021/10/18 03:30:40;;;;;;;35.67;20.30;;;;;;;12.89;89.26;100499.41;5023993;28;20239;-73
2021/10/18 03:33:06;;;;;;;34.10;20.17;;;;;;;13.07;88.52;100512.63;5023986;28;20033;-73
2021/10/18 03:35:31;;;;;;;30.88;19.52;;;;;;;13.12;88.43;100510.31;5022642;28;20068;-73
2021/10/18 03:37:57;;;;;;;39.92;21.10;;;;;;;13.08;88.71;100511.63;5023778;28;20095;-73
2021/10/18 03:40:22;;;;;;;34.50;20.58;;;;;;;13.07;88.17;100510.78;5023752;28;20331;-73
2021/10/18 03:42:48;;;;;;;32.40;19.08;;;;;;;13.10;88.00;100513.13;5023753;28;20093;-73
2021/10/18 03:45:14;;;;;;;41.05;20.90;;;;;;;12.98;88.21;100513.56;5023958;28;20263;-73
2021/10/18 03:47:40;;;;;;;41.03;21.70;;;;;;;12.97;88.91;100498.63;5023776;28;20029;-73
2021/10/18 03:50:07;;;;;;;41.03;22.25;;;;;;;12.88;89.04;100503.06;5023428;28;20220;-72
2021/10/18 03:52:33;;;;;;;36.88;22.33;;;;;;;12.90;89.39;100514.38;5023340;28;20327;-72
2021/10/18 03:54:58;;;;;;;39.13;22.27;;;;;;;12.92;89.10;100509.72;5023153;28;20038;-73
2021/10/18 03:57:24;;;;;;;38.63;20.70;;;;;;;12.93;89.38;100514.03;5023540;28;20373;-73
2021/10/18 03:59:49;;;;;;;36.30;20.15;;;;;;;13.00;89.21;100512.41;5023536;28;20073;-73
2021/10/18 04:02:15;;;;;;;32.92;19.50;;;;;;;13.02;89.35;100518.41;5023525;28;20040;-73
2021/10/18 04:04:40;;;;;;;32.53;19.00;;;;;;;13.12;88.87;100518.28;5022018;28;20038;-73
2021/10/18 04:07:06;;;;;;;35.13;18.13;;;;;;;13.20;88.53;100515.69;5023424;28;20303;-73
2021/10/18 04:09:32;;;;;;;34.78;20.52;;;;;;;13.37;87.43;100514.75;5021909;28;20113;-73
2021/10/18 04:11:58;;;;;;;38.78;21.63;;;;;;;13.34;87.68;100517.75;5023326;28;20032;-73
2021/10/18 04:14:23;;;;;;;42.70;22.67;;;;;;;13.36;87.52;100521.06;5023269;28;20057;-73
2021/10/18 04:16:48;;;;;;;35.45;21.42;;;;;;;13.48;87.11;100520.78;5023360;28;20055;-73
2021/10/18 04:19:14;;;;;;;34.30;20.95;;;;;;;13.51;87.05;100525.78;5023068;28;20094;-73
2021/10/18 04:21:39;;;;;;;39.25;20.77;;;;;;;13.57;86.70;100530.47;5022762;28;20097;-72
2021/10/18 04:24:05;;;;;;;35.50;19.67;;;;;;;13.58;86.86;100521.50;5022839;28;20033;-72
2021/10/18 04:26:31;;;;;;;31.85;19.63;;;;;;;13.61;86.28;100522.00;5023061;28;20037;-73
2021/10/18 04:28:56;;;;;;;32.60;18.88;;;;;;;13.63;86.49;100527.16;5022792;28;20375;-73
2021/10/18 04:31:25;;;;;;;29.52;17.90;;;;;;;13.71;85.88;100532.50;5022973;28;20034;-73
2021/10/18 04:33:51;;;;;;;34.25;19.55;;;;;;;13.72;85.43;100532.34;5022906;28;20042;-73
2021/10/18 04:36:16;;;;;;;29.90;17.25;;;;;;;13.71;85.82;100532.50;5022867;28;20036;-73
2021/10/18 04:38:42;;;;;;;29.67;17.67;;;;;;;13.73;85.34;100530.53;5022796;28;20041;-73
2021/10/18 04:41:07;;;;;;;34.88;19.02;;;;;;;13.70;85.40;100525.53;5022864;28;20399;-73
2021/10/18 04:43:33;;;;;;;33.83;18.95;;;;;;;13.80;85.09;100530.69;5022515;28;20080;-73
2021/10/18 04:45:58;;;;;;;32.30;17.95;;;;;;;13.72;85.42;100520.88;5022728;28;20038;-73
2021/10/18 04:48:24;;;;;;;29.30;17.63;;;;;;;13.75;85.07;100531.19;5022581;28;20041;-73
2021/10/18 04:50:49;;;;;;;37.15;18.17;;;;;;;13.79;84.63;100534.34;5022472;28;20041;-72
2021/10/18 04:53:14;;;;;;;30.55;17.75;;;;;;;13.79;84.28;100527.19;5021846;28;20053;-72
2021/10/18 04:55:40;;;;;;;27.50;17.80;;;;;;;13.71;85.47;100530.69;5021441;28;20034;-72
2021/10/18 04:58:05;;;;;;;33.08;18.20;;;;;;;13.72;84.57;100539.50;5022401;28;20044;-73
2021/10/18 05:00:36;;;;;;;29.38;17.42;;;;;;;13.81;84.76;100541.19;5022523;28;20038;-73
2021/10/18 05:03:01;;;;;;;32.00;18.10;;;;;;;13.72;85.09;100540.34;5022100;28;20053;-73
2021/10/18 05:05:27;;;;;;;30.13;17.33;;;;;;;13.72;84.86;100536.84;5022451;28;20060;-73
2021/10/18 05:08:00;;;;;;;29.70;18.08;;;;;;;13.72;84.45;100550.16;5022768;28;20076;-73
2021/10/18 05:10:26;;;;;;;34.30;20.90;;;;;;;13.75;84.03;100555.16;5022321;28;20057;-73
2021/10/18 05:12:51;;;;;;;34.08;19.13;;;;;;;13.72;84.62;100552.81;5022367;28;20025;-73
2021/10/18 05:15:17;;;;;;;28.90;18.08;;;;;;;13.69;85.06;100553.13;5022209;28;20375;-73
2021/10/18 05:17:42;;;;;;;36.45;19.38;;;;;;;13.72;84.83;100561.63;5022559;28;20088;-72
2021/10/18 05:20:08;;;;;;;34.03;20.00;;;;;;;13.66;84.72;100553.47;5022461;28;20096;-72
2021/10/18 05:22:33;;;;;;;29.05;17.50;;;;;;;13.65;85.68;100551.78;5022203;28;20101;-73
2021/10/18 05:24:58;;;;;;;33.92;19.35;;;;;;;13.81;84.66;100565.13;5021813;28;20037;-73
2021/10/18 05:27:24;;;;;;;37.42;19.48;;;;;;;13.84;84.19;100566.66;5022272;28;20084;-73
2021/10/18 05:29:49;;;;;;;31.70;19.13;;;;;;;13.74;85.45;100567.63;5022294;28;20045;-72
2021/10/18 05:32:15;;;;;;;34.00;19.05;;;;;;;13.79;84.64;100564.47;5022311;28;20033;-73
2021/10/18 05:34:40;;;;;;;34.30;19.45;;;;;;;13.65;83.98;100573.91;5022076;28;20108;-73
2021/10/18 05:37:06;;;;;;;42.70;19.50;;;;;;;13.48;84.45;100581.97;5022216;28;20044;-73
2021/10/18 05:39:31;;;;;;;33.13;18.33;;;;;;;13.43;85.25;100582.44;5021946;28;20100;-73
2021/10/18 05:41:56;;;;;;;30.98;17.48;;;;;;;13.34;84.50;100572.78;5022115;28;20038;-73
2021/10/18 05:44:22;;;;;;;32.70;18.77;;;;;;;13.20;86.16;100594.66;5022050;28;20106;-73
2021/10/18 05:46:47;;;;;;;30.70;17.98;;;;;;;13.20;85.81;100589.31;5022449;28;20109;-73
2021/10/18 05:49:13;;;;;;;31.85;17.08;;;;;;;13.15;86.30;100599.56;5021775;28;20044;-73
2021/10/18 05:51:39;;;;;;;31.13;16.35;;;;;;;13.18;86.36;100593.97;5021777;28;20101;-73
2021/10/18 05:54:05;;;;;;;31.15;18.23;;;;;;;13.17;86.37;100589.63;5021564;28;20034;-73
2021/10/18 05:56:30;;;;;;;33.35;18.85;;;;;;;13.08;87.32;100602.03;5022076;28;20203;-72
2021/10/18 05:58:56;;;;;;;32.17;20.13;;;;;;;13.14;86.95;100604.06;5021805;28;20262;-72
2021/10/18 06:01:22;;;;;;;38.65;20.17;;;;;;;13.21;87.07;100601.63;5020890;28;20101;-73
2021/10/18 06:03:47;;;;;;;34.05;18.38;;;;;;;13.27;86.92;100608.97;5021838;28;20048;-73
2021/10/18 06:06:15;;;;;;;31.92;17.73;;;;;;;13.45;85.94;100614.22;5021964;28;20085;-73
2021/10/18 06:08:41;;;;;;;32.95;17.75;;;;;;;13.37;86.51;100615.00;5021911;28;20299;-73
2021/10/18 06:11:06;;;;;;;27.27;16.85;;;;;;;13.27;85.38;100609.81;5021881;28;20028;-73
2021/10/18 06:13:32;;;;;;;30.13;18.00;;;;;;;13.07;87.42;100616.31;5022692;28;20026;-73
2021/10/18 06:15:57;;;;;;;29.63;17.80;;;;;;;13.27;86.46;100620.44;5025431;28;20026;-73
2021/10/18 06:18:23;;;;;;;31.38;18.52;;;;;;;13.30;86.18;100622.78;5025485;28;20026;-73
2021/10/18 06:20:51;;;;;;;33.50;18.52;;;;;;;13.24;86.06;100623.44;5025156;28;20097;-73
2021/10/18 06:23:18;;;;;;;33.47;18.83;;;;;;;13.26;86.33;100618.78;5024702;28;20030;-73
2021/10/18 06:25:45;;;;;;;33.00;20.17;;;;;;;13.12;85.26;100616.66;5025195;28;20064;-72
2021/10/18 06:28:11;;;;;;;32.55;18.90;;;;;;;13.31;84.95;100627.13;5025033;28;20033;-72
2021/10/18 06:30:37;;;;;;;33.83;19.77;;;;;;;13.35;85.45;100630.28;5025206;28;20029;-73
2021/10/18 06:33:03;;;;;;;31.02;18.33;;;;;;;13.39;84.79;100629.00;5024954;28;20033;-73
2021/10/18 06:35:30;;;;;;;41.78;21.30;;;;;;;13.27;85.65;100624.94;5025021;28;20050;-73
2021/10/18 06:37:56;;;;;;;37.03;21.70;;;;;;;13.48;84.39;100633.34;5024883;28;20026;-73
2021/10/18 06:40:21;;;;;;;35.97;21.42;;;;;;;13.32;84.50;100635.94;5024808;28;20330;-73
2021/10/18 06:42:46;;;;;;;39.35;20.95;;;;;;;13.43;84.30;100638.31;5025063;28;20181;-73
2021/10/18 06:45:12;;;;;;;37.15;21.77;;;;;;;13.62;83.63;100637.28;5024887;28;20371;-73
2021/10/18 06:47:38;;;;;;;41.35;22.08;;;;;;;13.54;82.32;100646.06;5025134;28;20385;-73
2021/10/18 06:50:05;;;;;;;37.83;23.50;;;;;;;13.63;83.17;100642.44;5024543;28;20329;-73
2021/10/18 06:52:39;;;;;;;40.85;23.10;;;;;;;13.72;82.49;100641.47;5024517;28;20037;-73
2021/10/18 06:55:07;;;;;;;49.58;24.92;;;;;;;13.78;82.49;100645.31;5024318;28;20033;-72
2021/10/18 06:57:33;;;;;;;38.58;23.95;;;;;;;13.72;82.89;100644.13;5024785;28;20368;-72
2021/10/18 06:59:58;;;;;;;40.38;23.83;;;;;;;14.00;81.54;100646.56;5024591;28;20072;-73
2021/10/18 07:02:26;;;;;;;40.42;23.17;;;;;;;14.19;80.20;100646.28;5024806;28;20030;-73
2021/10/18 07:04:52;;;;;;;52.65;24.48;;;;;;;14.41;78.86;100649.31;5024247;28;20042;-73
2021/10/18 07:07:19;;;;;;;45.80;23.55;;;;;;;14.36;79.40;100647.97;5024534;28;20052;-73
2021/10/18 07:09:45;;;;;;;45.30;23.85;;;;;;;14.17;79.60;100648.25;5024266;28;20030;-73
2021/10/18 07:12:10;;;;;;;40.38;22.52;;;;;;;14.17;79.61;100652.75;5024387;28;20061;-73
2021/10/18 07:14:36;;;;;;;41.40;23.73;;;;;;;14.40;79.25;100653.78;5024302;28;20050;-72
2021/10/18 07:17:02;;;;;;;38.22;24.40;;;;;;;14.41;79.73;100659.97;5024430;28;20085;-74
2021/10/18 07:19:27;;;;;;;37.97;22.80;;;;;;;14.53;78.81;100654.16;5023937;28;20072;-73
2021/10/18 07:21:53;;;;;;;38.85;23.92;;;;;;;14.51;78.85;100666.84;5023900;28;20033;-73
2021/10/18 07:24:18;;;;;;;49.17;26.08;;;;;;;14.55;79.15;100659.34;5023299;28;20342;-73
2021/10/18 07:26:48;;;;;;;39.20;23.33;;;;;;;14.59;78.44;100658.03;5024231;28;20045;-73
2021/10/18 07:29:14;;;;;;;46.13;25.25;;;;;;;14.89;77.97;100651.22;5023985;28;20030;-73
2021/10/18 07:31:41;;;;;;;42.83;24.83;;;;;;;14.85;76.74;100653.38;5024048;28;20034;-73
2021/10/18 07:34:12;;;;;;;40.15;24.38;;;;;;;14.82;75.99;100661.72;5024004;28;20045;-73
2021/10/18 07:36:46;;;;;;;41.22;23.38;;;;;;;14.99;75.67;100665.19;5024042;28;20060;-72
2021/10/18 07:39:11;;;;;;;44.15;24.35;;;;;;;15.18;74.84;100656.00;5023885;28;20308;-72
2021/10/18 07:41:36;;;;;;;42.15;24.70;;;;;;;15.34;74.35;100653.31;5022992;28;20030;-73
2021/10/18 07:44:02;;;;;;;41.28;23.20;;;;;;;15.44;73.60;100661.94;5023466;28;20034;-73
2021/10/18 07:46:27;;;;;;;43.60;24.95;;;;;;;15.58;73.22;100663.94;5023945;28;20223;-74
2021/10/18 07:48:53;;;;;;;42.78;25.00;;;;;;;15.67;73.28;100647.91;5023674;28;20029;-74
2021/10/18 07:51:18;;;;;;;39.10;22.80;;;;;;;15.75;73.43;100656.72;5023600;28;20046;-74
2021/10/18 07:53:44;;;;;;;41.13;24.77;;;;;;;15.76;72.94;100657.56;5022875;28;20227;-74
2021/10/18 07:56:09;;;;;;;40.40;24.63;;;;;;;15.76;72.64;100662.91;5023651;28;20048;-73
2021/10/18 07:58:35;;;;;;;43.50;23.35;;;;;;;15.85;71.21;100665.34;5023456;28;20030;-73
2021/10/18 08:01:00;;;;;;;42.03;23.67;;;;;;;15.87;71.80;100670.53;5023725;28;20266;-73
2021/10/18 08:03:25;;;;;;;50.20;27.02;;;;;;;15.94;71.85;100660.81;5023356;28;20316;-73
2021/10/18 08:05:51;;;;;;;145.07;55.38;;;;;;;16.25;71.37;100663.47;5023223;28;20065;-74
2021/10/18 08:08:21;;;;;;;54.33;28.35;;;;;;;16.24;70.83;100668.00;5023015;28;20041;-74
2021/10/18 08:10:49;;;;;;;122.20;46.42;;;;;;;16.14;70.91;100664.72;5023333;28;20030;-73
2021/10/18 08:13:14;;;;;;;42.92;23.80;;;;;;;16.32;69.49;100664.44;5023206;28;20315;-74
2021/10/18 08:15:40;;;;;;;44.08;24.40;;;;;;;16.53;68.42;100667.28;5023204;28;20129;-72
2021/10/18 08:18:05;;;;;;;44.05;24.08;;;;;;;16.49;68.20;100652.63;5021910;28;20240;-72
2021/10/18 08:20:31;;;;;;;45.65;25.50;;;;;;;16.54;68.10;100668.97;5022962;28;20323;-73
2021/10/18 08:22:56;;;;;;;40.97;25.17;;;;;;;16.57;69.03;100660.56;5022615;28;20018;-73
2021/10/18 08:25:22;;;;;;;42.95;24.98;;;;;;;16.64;68.80;100665.22;5022873;28;20042;-73
2021/10/18 08:27:48;;;;;;;51.45;26.45;;;;;;;16.67;68.87;100660.41;5021939;28;20025;-73
2021/10/18 08:30:14;;;;;;;42.17;24.88;;;;;;;16.83;67.78;100665.63;5022977;28;20052;-73
2021/10/18 08:32:42;;;;;;;51.15;24.45;;;;;;;16.83;68.83;100662.13;5022976;28;20064;-73
2021/10/18 08:35:10;;;;;;;43.72;24.98;;;;;;;16.84;68.46;100667.28;5022625;28;20037;-73
2021/10/18 08:40:20;;;;;;;44.78;25.38;;;;;;;16.90;68.19;100666.56;5022789;28;20322;-73
2021/10/18 08:45:21;;;;;;;45.92;24.67;;;;;;;17.20;67.11;100664.78;5022662;28;20092;-73
2021/10/18 08:47:49;;;;;;;40.70;22.95;;;;;;;17.07;67.82;100659.22;5022698;28;20033;-73
2021/10/18 08:50:14;;;;;;;42.40;24.65;;;;;;;17.06;68.02;100665.56;5022788;28;20144;-73
2021/10/18 08:52:41;;;;;;;39.35;24.77;;;;;;;16.82;69.75;100666.63;5022526;28;20093;-73
2021/10/18 08:55:08;;;;;;;40.15;23.83;;;;;;;17.01;68.75;100664.47;5022210;28;20038;-72
2021/10/18 08:57:33;;;;;;;36.33;23.30;;;;;;;17.20;67.42;100658.59;5022748;28;20037;-72
2021/10/18 08:59:59;;;;;;;40.38;23.83;;;;;;;17.24;66.01;100654.53;5022340;28;20060;-73
2021/10/18 09:02:39;;;;;;;40.10;23.27;;;;;;;17.23;67.31;100661.72;5022550;28;20041;-73
2021/10/18 09:05:06;;;;;;;43.47;24.33;;;;;;;17.15;68.16;100661.81;5022543;28;20049;-73
2021/10/18 09:07:37;;;;;;;59.45;28.23;;;;;;;17.29;67.95;100664.69;5022655;28;20045;-73
2021/10/18 09:10:13;;;;;;;50.22;25.77;;;;;;;17.42;68.34;100655.00;5022327;28;20065;-73
2021/10/18 09:12:40;;;;;;;44.60;23.60;;;;;;;17.52;66.53;100654.72;5022661;28;20079;-73
2021/10/18 09:15:23;;;;;;;37.50;24.15;;;;;;;17.61;65.53;100652.78;5022048;28;20030;-73
2021/10/18 09:17:59;;;;;;;42.83;25.13;;;;;;;17.37;66.98;100654.72;5022454;28;20097;-72
2021/10/18 09:20:33;;;;;;;39.67;23.40;;;;;;;17.27;67.33;100643.47;5022224;28;20092;-72
2021/10/18 09:23:18;;;;;;;43.22;23.60;;;;;;;17.52;66.16;100654.72;5021911;28;20057;-73
2021/10/18 09:25:44;;;;;;;37.83;23.73;;;;;;;17.47;67.64;100644.56;5022217;28;20057;-73
2021/10/18 09:28:14;;;;;;;40.08;23.38;;;;;;;17.37;68.42;100645.84;5022260;28;20037;-73
2021/10/18 09:30:47;;;;;;;45.05;24.63;;;;;;;17.32;68.39;100642.91;5021261;28;20065;-73
2021/10/18 09:33:31;;;;;;;38.45;24.23;;;;;;;17.37;67.52;100637.81;5022296;28;20025;-74
2021/10/18 09:35:58;;;;;;;55.50;27.08;;;;;;;17.39;66.80;100633.94;5022227;28;20231;-74
2021/10/18 09:38:25;;;;;;;46.47;25.20;;;;;;;17.07;68.88;100635.13;5022162;28;20342;-73
2021/10/18 09:40:53;;;;;;;64.97;30.30;;;;;;;17.20;67.41;100632.66;5022333;28;20219;-73
2021/10/18 09:43:47;;;;;;;49.20;28.42;;;;;;;17.30;69.39;100623.53;5022192;28;20318;-73
2021/10/18 10:53:11;;;;;;;28.88;17.58;;;;;;;17.93;63.31;100560.50;5024121;28;20029;-73
2021/10/18 10:55:37;;;;;;;32.88;18.85;;;;;;;17.64;64.85;100556.00;5024721;28;20037;-74
2021/10/18 10:58:53;;;;;;;31.95;17.67;;;;;;;17.72;65.74;100559.47;5024478;28;20030;-73
2021/10/18 11:01:54;;;;;;;29.30;18.50;;;;;;;18.00;64.14;100556.88;5024647;28;20042;-73
2021/10/18 11:04:31;;;;;;;30.70;18.77;;;;;;;17.99;65.02;100554.38;5024438;28;20083;-73
2021/10/18 11:07:04;;;;;;;35.20;18.80;;;;;;;17.77;64.44;100553.53;5024578;28;20046;-72
2021/10/18 11:09:55;;;;;;;29.58;19.88;;;;;;;17.63;65.98;100552.50;5024201;28;20044;-73
2021/10/18 11:12:33;;;;;;;36.03;19.98;;;;;;;17.64;64.81;100548.78;5024437;28;20136;-73
2021/10/18 11:15:04;;;;;;;32.38;19.92;;;;;;;17.35;65.87;100547.00;5024395;28;20059;-73
2021/10/18 11:17:38;;;;;;;34.65;18.70;;;;;;;17.68;64.59;100536.72;5024336;28;20048;-73
2021/10/18 11:20:16;;;;;;;31.13;18.70;;;;;;;17.71;63.34;100538.22;5022756;28;20049;-73
2021/10/18 11:22:45;;;;;;;34.67;20.05;;;;;;;17.60;64.45;100538.63;5023873;28;20425;-73
2021/10/18 11:25:15;;;;;;;40.20;20.30;;;;;;;17.71;63.13;100535.53;5023764;28;20065;-74
2021/10/18 11:27:43;;;;;;;36.55;20.55;;;;;;;17.65;64.21;100537.06;5024266;28;20034;-73
2021/10/18 11:30:15;;;;;;;44.35;21.83;;;;;;;17.70;64.65;100528.53;5023979;28;20334;-73
2021/10/18 11:32:42;;;;;;;49.08;24.35;;;;;;;17.38;65.54;100530.56;5023132;28;20069;-73
2021/10/18 11:35:10;;;;;;;40.88;22.77;;;;;;;17.66;63.68;100525.34;5023670;28;20033;-73
2021/10/18 11:38:01;;;;;;;43.47;22.63;;;;;;;17.56;63.94;100525.63;5023973;28;20049;-73
2021/10/18 11:40:49;;;;;;;40.50;21.55;;;;;;;17.46;65.57;100533.13;5023862;28;20053;-73
2021/10/18 11:43:15;;;;;;;40.40;21.30;;;;;;;17.45;65.65;100522.59;5023739;28;20349;-73
2021/10/18 11:45:43;;;;;;;41.28;23.05;;;;;;;16.91;68.38;100522.94;5023626;28;20072;-72
2021/10/18 11:48:21;;;;;;;41.60;24.73;;;;;;;16.87;69.03;100522.47;5023661;28;20029;-73
2021/10/18 11:50:49;;;;;;;37.10;22.05;;;;;;;17.06;68.77;100529.13;5023595;28;20033;-73
2021/10/18 11:53:19;;;;;;;36.17;21.73;;;;;;;17.03;68.29;100516.09;5022947;28;20033;-73
2021/10/18 11:55:53;;;;;;;38.42;21.88;;;;;;;17.39;66.37;100520.69;5023732;28;20052;-73
2021/10/18 11:58:25;;;;;;;36.55;22.58;;;;;;;17.51;66.17;100527.22;5023420;28;20037;-73
2021/10/18 12:01:01;;;;;;;42.17;23.98;;;;;;;17.39;68.36;100523.34;5023746;28;20040;-73
2021/10/18 12:03:28;;;;;;;38.47;23.35;;;;;;;17.37;68.96;100522.72;5023557;28;20053;-73
2021/10/18 12:05:55;;;;;;;39.10;23.45;;;;;;;17.49;69.80;100527.41;5023314;28;20037;-73
2021/10/18 12:08:26;;;;;;;35.97;21.73;;;;;;;17.43;69.22;100519.28;5023086;28;20041;-73
2021/10/18 12:10:52;;;;;;;39.13;22.50;;;;;;;17.57;68.22;100521.09;5022370;28;20101;-74
2021/10/18 12:13:28;;;;;;;32.83;19.48;;;;;;;17.45;68.96;100525.28;5023415;28;20334;-73
2021/10/18 12:16:00;;;;;;;34.22;19.55;;;;;;;17.61;68.25;100517.03;5023357;28;20041;-74
2021/10/18 12:18:37;;;;;;;36.28;21.77;;;;;;;17.43;68.63;100514.75;5023187;28;20037;-73
2021/10/18 12:21:08;;;;;;;35.85;20.10;;;;;;;17.48;67.84;100506.16;5023103;28;20029;-73
2021/10/18 12:23:37;;;;;;;37.17;18.88;;;;;;;17.42;68.01;100513.09;5022800;28;20029;-73